sensor_id;sensor_type;location;lat;lon;timestamp;temperature;humidity
30628;DHT22;17394;50.890;4.724;2023-02-28T00:00:28;-2.90;99.90
30628;DHT22;17394;50.890;4.724;2023-02-28T00:02:53;-2.90;99.90
30628;DHT22;17394;50.890;4.724;2023-02-28T00:05:20;-2.90;99.90
30628;DHT22;17394;50.890;4.724;2023-02-28T00:07:46;-2.90;99.90
30628;DHT22;17394;50.890;4.724;2023-02-28T00:10:14;-3.00;99.90
30628;DHT22;17394;50.890;4.724;2023-02-28T00:12:40;-3.00;99.90
30628;DHT22;17394;50.890;4.724;2023-02-28T00:15:07;-3.00;99.90
30628;DHT22;17394;50.890;4.724;2023-02-28T00:17:33;-3.00;99.90
30628;DHT22;17394;50.890;4.724;2023-02-28T00:19:58;-3.00;99.90
30628;DHT22;17394;50.890;4.724;2023-02-28T00:22:27;-3.00;99.90
30628;DHT22;17394;50.890;4.724;2023-02-28T00:24:52;-3.00;99.90
30628;DHT22;17394;50.890;4.724;2023-02-28T00:27:18;-3.10;99.90
30628;DHT22;17394;50.890;4.724;2023-02-28T00:29:43;-3.10;99.90
30628;DHT22;17394;50.890;4.724;2023-02-28T00:32:11;-3.10;99.90
30628;DHT22;17394;50.890;4.724;2023-02-28T00:34:37;-3.20;99.90
30628;DHT22;17394;50.890;4.724;2023-02-28T00:37:04;-3.30;99.90
30628;DHT22;17394;50.890;4.724;2023-02-28T00:39:30;-3.30;99.90
30628;DHT22;17394;50.890;4.724;2023-02-28T00:41:55;-3.30;99.90
30628;DHT22;17394;50.890;4.724;2023-02-28T00:44:21;-3.40;99.90
30628;DHT22;17394;50.890;4.724;2023-02-28T00:46:46;-3.40;99.90
30628;DHT22;17394;50.890;4.724;2023-02-28T00:49:12;-3.50;99.90
30628;DHT22;17394;50.890;4.724;2023-02-28T00:51:38;-3.60;99.90
30628;DHT22;17394;50.890;4.724;2023-02-28T00:54:03;-3.60;99.90
30628;DHT22;17394;50.890;4.724;2023-02-28T00:56:29;-3.60;99.90
30628;DHT22;17394;50.890;4.724;2023-02-28T00:58:55;-3.70;99.90
30628;DHT22;17394;50.890;4.724;2023-02-28T01:01:20;-3.70;99.90
30628;DHT22;17394;50.890;4.724;2023-02-28T01:03:46;-3.80;99.90
30628;DHT22;17394;50.890;4.724;2023-02-28T01:06:12;-3.80;99.90
30628;DHT22;17394;50.890;4.724;2023-02-28T01:08:37;-3.90;99.90
30628;DHT22;17394;50.890;4.724;2023-02-28T01:11:10;-3.90;99.90
30628;DHT22;17394;50.890;4.724;2023-02-28T01:13:36;-4.00;99.90
30628;DHT22;17394;50.890;4.724;2023-02-28T01:16:01;-4.00;99.90
30628;DHT22;17394;50.890;4.724;2023-02-28T01:18:27;-3.90;99.90
30628;DHT22;17394;50.890;4.724;2023-02-28T01:20:53;-4.00;99.90
30628;DHT22;17394;50.890;4.724;2023-02-28T01:23:19;-4.00;99.90
30628;DHT22;17394;50.890;4.724;2023-02-28T01:25:45;-4.00;99.90
30628;DHT22;17394;50.890;4.724;2023-02-28T01:28:11;-4.00;99.90
30628;DHT22;17394;50.890;4.724;2023-02-28T01:30:36;-4.10;99.90
30628;DHT22;17394;50.890;4.724;2023-02-28T01:33:02;-4.10;99.90
30628;DHT22;17394;50.890;4.724;2023-02-28T01:35:28;-4.10;99.90
30628;DHT22;17394;50.890;4.724;2023-02-28T01:37:53;-4.00;99.90
30628;DHT22;17394;50.890;4.724;2023-02-28T01:40:19;-4.00;99.90
30628;DHT22;17394;50.890;4.724;2023-02-28T01:42:45;-3.50;99.90
30628;DHT22;17394;50.890;4.724;2023-02-28T01:47:42;-4.10;99.90
30628;DHT22;17394;50.890;4.724;2023-02-28T01:50:13;-4.10;99.90
30628;DHT22;17394;50.890;4.724;2023-02-28T01:52:40;-4.10;99.90
30628;DHT22;17394;50.890;4.724;2023-02-28T01:55:06;-4.10;99.90
30628;DHT22;17394;50.890;4.724;2023-02-28T01:57:33;-4.20;99.90
30628;DHT22;17394;50.890;4.724;2023-02-28T02:00:05;-4.20;99.90
30628;DHT22;17394;50.890;4.724;2023-02-28T02:02:34;-4.20;99.90
30628;DHT22;17394;50.890;4.724;2023-02-28T02:05:36;-4.20;99.90
30628;DHT22;17394;50.890;4.724;2023-02-28T02:07:54;-4.30;99.90
30628;DHT22;17394;50.890;4.724;2023-02-28T02:10:21;-4.30;99.90
30628;DHT22;17394;50.890;4.724;2023-02-28T02:17:50;-4.30;99.90
30628;DHT22;17394;50.890;4.724;2023-02-28T02:27:58;-4.30;99.90
30628;DHT22;17394;50.890;4.724;2023-02-28T02:43:22;-4.50;99.90
30628;DHT22;17394;50.890;4.724;2023-02-28T02:45:55;-4.50;99.90
30628;DHT22;17394;50.890;4.724;2023-02-28T02:48:23;-4.60;99.90
30628;DHT22;17394;50.890;4.724;2023-02-28T02:50:51;-4.60;99.90
30628;DHT22;17394;50.890;4.724;2023-02-28T02:53:18;-4.60;99.90
30628;DHT22;17394;50.890;4.724;2023-02-28T02:55:47;-4.60;99.90
30628;DHT22;17394;50.890;4.724;2023-02-28T02:58:18;-4.60;99.90
30628;DHT22;17394;50.890;4.724;2023-02-28T03:00:47;-4.60;99.90
30628;DHT22;17394;50.890;4.724;2023-02-28T03:03:14;-4.60;99.90
30628;DHT22;17394;50.890;4.724;2023-02-28T03:08:08;-4.60;99.90
30628;DHT22;17394;50.890;4.724;2023-02-28T03:10:36;-4.60;99.90
30628;DHT22;17394;50.890;4.724;2023-02-28T03:15:41;-4.60;99.90
30628;DHT22;17394;50.890;4.724;2023-02-28T03:18:12;-4.40;99.90
30628;DHT22;17394;50.890;4.724;2023-02-28T03:20:47;-4.20;99.90
30628;DHT22;17394;50.890;4.724;2023-02-28T03:23:17;-4.10;99.90
30628;DHT22;17394;50.890;4.724;2023-02-28T03:25:47;-4.00;99.90
30628;DHT22;17394;50.890;4.724;2023-02-28T03:28:22;-4.10;99.90
30628;DHT22;17394;50.890;4.724;2023-02-28T03:30:50;-4.10;99.90
30628;DHT22;17394;50.890;4.724;2023-02-28T03:33:36;-4.20;99.90
30628;DHT22;17394;50.890;4.724;2023-02-28T03:36:13;-4.30;99.90
30628;DHT22;17394;50.890;4.724;2023-02-28T03:38:44;-4.40;99.90
30628;DHT22;17394;50.890;4.724;2023-02-28T03:41:19;-4.40;99.90
30628;DHT22;17394;50.890;4.724;2023-02-28T03:44:06;-4.40;99.90
30628;DHT22;17394;50.890;4.724;2023-02-28T03:46:33;-4.50;99.90
30628;DHT22;17394;50.890;4.724;2023-02-28T03:51:56;-4.60;99.90
30628;DHT22;17394;50.890;4.724;2023-02-28T03:54:31;-4.70;99.90
30628;DHT22;17394;50.890;4.724;2023-02-28T03:59:59;-4.50;99.90
30628;DHT22;17394;50.890;4.724;2023-02-28T04:02:26;-4.50;99.90
30628;DHT22;17394;50.890;4.724;2023-02-28T04:04:52;-4.50;99.90
30628;DHT22;17394;50.890;4.724;2023-02-28T04:07:19;-4.40;99.90
30628;DHT22;17394;50.890;4.724;2023-02-28T04:09:44;-4.30;99.90
30628;DHT22;17394;50.890;4.724;2023-02-28T04:12:10;-4.20;99.90
30628;DHT22;17394;50.890;4.724;2023-02-28T04:14:36;-4.10;99.90
30628;DHT22;17394;50.890;4.724;2023-02-28T04:17:02;-4.10;99.90
30628;DHT22;17394;50.890;4.724;2023-02-28T04:19:27;-4.00;99.90
30628;DHT22;17394;50.890;4.724;2023-02-28T04:21:53;-3.90;99.90
30628;DHT22;17394;50.890;4.724;2023-02-28T04:24:23;-3.90;99.90
30628;DHT22;17394;50.890;4.724;2023-02-28T04:26:50;-3.80;99.90
30628;DHT22;17394;50.890;4.724;2023-02-28T04:29:21;-3.80;99.90
30628;DHT22;17394;50.890;4.724;2023-02-28T04:31:47;-3.90;99.90
30628;DHT22;17394;50.890;4.724;2023-02-28T04:34:13;-3.90;99.90
30628;DHT22;17394;50.890;4.724;2023-02-28T04:36:38;-3.90;99.90
30628;DHT22;17394;50.890;4.724;2023-02-28T04:39:04;-3.90;99.90
30628;DHT22;17394;50.890;4.724;2023-02-28T04:41:30;-3.80;99.90
30628;DHT22;17394;50.890;4.724;2023-02-28T04:43:55;-3.70;99.90
30628;DHT22;17394;50.890;4.724;2023-02-28T04:46:21;-3.50;99.90
30628;DHT22;17394;50.890;4.724;2023-02-28T04:48:47;-3.50;99.90
30628;DHT22;17394;50.890;4.724;2023-02-28T04:51:14;-3.60;99.90
30628;DHT22;17394;50.890;4.724;2023-02-28T04:53:40;-3.60;99.90
30628;DHT22;17394;50.890;4.724;2023-02-28T04:56:06;-3.60;99.90
30628;DHT22;17394;50.890;4.724;2023-02-28T04:58:32;-3.70;99.90
30628;DHT22;17394;50.890;4.724;2023-02-28T05:01:05;-3.70;99.90
30628;DHT22;17394;50.890;4.724;2023-02-28T05:03:41;-3.70;99.90
30628;DHT22;17394;50.890;4.724;2023-02-28T05:06:07;-3.70;99.90
30628;DHT22;17394;50.890;4.724;2023-02-28T05:08:33;-3.80;99.90
30628;DHT22;17394;50.890;4.724;2023-02-28T05:10:59;-3.80;99.90
30628;DHT22;17394;50.890;4.724;2023-02-28T05:13:26;-3.90;99.90
30628;DHT22;17394;50.890;4.724;2023-02-28T05:15:52;-3.80;99.90
30628;DHT22;17394;50.890;4.724;2023-02-28T05:18:17;-3.80;99.90
30628;DHT22;17394;50.890;4.724;2023-02-28T05:20:43;-3.70;99.90
30628;DHT22;17394;50.890;4.724;2023-02-28T05:23:10;-3.80;99.90
30628;DHT22;17394;50.890;4.724;2023-02-28T05:25:36;-3.60;99.90
30628;DHT22;17394;50.890;4.724;2023-02-28T05:28:02;-3.60;99.90
30628;DHT22;17394;50.890;4.724;2023-02-28T05:30:28;-3.40;99.90
30628;DHT22;17394;50.890;4.724;2023-02-28T05:32:53;-3.20;99.90
30628;DHT22;17394;50.890;4.724;2023-02-28T05:35:19;-3.10;99.90
30628;DHT22;17394;50.890;4.724;2023-02-28T05:37:44;-3.00;99.90
30628;DHT22;17394;50.890;4.724;2023-02-28T05:40:13;-3.00;99.90
30628;DHT22;17394;50.890;4.724;2023-02-28T05:42:40;-2.90;99.90
30628;DHT22;17394;50.890;4.724;2023-02-28T05:45:06;-2.90;99.90
30628;DHT22;17394;50.890;4.724;2023-02-28T05:47:32;-2.80;99.90
30628;DHT22;17394;50.890;4.724;2023-02-28T05:49:57;-2.90;99.90
30628;DHT22;17394;50.890;4.724;2023-02-28T05:52:23;-2.70;99.90
30628;DHT22;17394;50.890;4.724;2023-02-28T05:54:49;-2.70;99.90
30628;DHT22;17394;50.890;4.724;2023-02-28T05:57:15;-2.70;99.90
30628;DHT22;17394;50.890;4.724;2023-02-28T05:59:41;-2.70;99.90
30628;DHT22;17394;50.890;4.724;2023-02-28T06:02:10;-2.70;99.90
30628;DHT22;17394;50.890;4.724;2023-02-28T06:04:37;-2.90;99.90
30628;DHT22;17394;50.890;4.724;2023-02-28T06:07:03;-2.90;99.90
30628;DHT22;17394;50.890;4.724;2023-02-28T06:09:28;-3.00;99.90
30628;DHT22;17394;50.890;4.724;2023-02-28T06:11:54;-3.10;99.90
30628;DHT22;17394;50.890;4.724;2023-02-28T06:14:20;-3.10;99.90
30628;DHT22;17394;50.890;4.724;2023-02-28T06:16:46;-3.20;99.90
30628;DHT22;17394;50.890;4.724;2023-02-28T06:19:11;-3.30;99.90
30628;DHT22;17394;50.890;4.724;2023-02-28T06:21:38;-3.30;99.90
30628;DHT22;17394;50.890;4.724;2023-02-28T06:24:04;-3.40;99.90
30628;DHT22;17394;50.890;4.724;2023-02-28T06:26:30;-3.30;99.90
30628;DHT22;17394;50.890;4.724;2023-02-28T06:28:56;-3.30;99.90
30628;DHT22;17394;50.890;4.724;2023-02-28T06:31:21;-3.30;99.90
30628;DHT22;17394;50.890;4.724;2023-02-28T06:33:47;-3.30;99.90
30628;DHT22;17394;50.890;4.724;2023-02-28T06:36:14;-3.40;99.90
30628;DHT22;17394;50.890;4.724;2023-02-28T06:38:40;-3.40;99.90
30628;DHT22;17394;50.890;4.724;2023-02-28T06:41:06;-3.40;99.90
30628;DHT22;17394;50.890;4.724;2023-02-28T06:43:37;-3.40;99.90
30628;DHT22;17394;50.890;4.724;2023-02-28T06:46:03;-3.40;99.90
30628;DHT22;17394;50.890;4.724;2023-02-28T06:48:29;-3.40;99.90
30628;DHT22;17394;50.890;4.724;2023-02-28T06:51:05;-3.40;99.90
30628;DHT22;17394;50.890;4.724;2023-02-28T06:53:31;-3.40;99.90
30628;DHT22;17394;50.890;4.724;2023-02-28T06:55:57;-3.40;99.90
30628;DHT22;17394;50.890;4.724;2023-02-28T06:58:23;-3.50;99.90
30628;DHT22;17394;50.890;4.724;2023-02-28T07:00:50;-3.50;99.90
30628;DHT22;17394;50.890;4.724;2023-02-28T07:03:16;-3.50;99.90
30628;DHT22;17394;50.890;4.724;2023-02-28T07:05:43;-3.40;99.90
30628;DHT22;17394;50.890;4.724;2023-02-28T07:08:08;-3.40;99.90
30628;DHT22;17394;50.890;4.724;2023-02-28T07:10:36;-3.40;99.90
30628;DHT22;17394;50.890;4.724;2023-02-28T07:13:03;-3.30;99.90
30628;DHT22;17394;50.890;4.724;2023-02-28T07:15:29;-3.20;99.90
30628;DHT22;17394;50.890;4.724;2023-02-28T07:17:54;-3.10;99.90
30628;DHT22;17394;50.890;4.724;2023-02-28T07:20:22;-2.90;99.90
30628;DHT22;17394;50.890;4.724;2023-02-28T07:22:48;-2.80;99.90
30628;DHT22;17394;50.890;4.724;2023-02-28T07:25:21;-2.60;99.90
30628;DHT22;17394;50.890;4.724;2023-02-28T07:27:46;-2.50;99.90
30628;DHT22;17394;50.890;4.724;2023-02-28T07:30:12;-2.40;99.90
30628;DHT22;17394;50.890;4.724;2023-02-28T07:32:38;-2.40;99.90
30628;DHT22;17394;50.890;4.724;2023-02-28T07:35:03;-2.30;99.90
30628;DHT22;17394;50.890;4.724;2023-02-28T07:37:29;-2.20;99.90
30628;DHT22;17394;50.890;4.724;2023-02-28T07:39:56;-2.10;99.90
30628;DHT22;17394;50.890;4.724;2023-02-28T07:42:22;-2.00;99.90
30628;DHT22;17394;50.890;4.724;2023-02-28T07:44:48;-1.90;99.90
30628;DHT22;17394;50.890;4.724;2023-02-28T07:47:13;-1.80;99.90
30628;DHT22;17394;50.890;4.724;2023-02-28T07:49:39;-1.70;99.90
30628;DHT22;17394;50.890;4.724;2023-02-28T07:52:05;-1.60;99.90
30628;DHT22;17394;50.890;4.724;2023-02-28T07:54:31;-1.50;99.90
30628;DHT22;17394;50.890;4.724;2023-02-28T07:56:57;-1.40;99.90
30628;DHT22;17394;50.890;4.724;2023-02-28T07:59:23;-1.30;99.90
30628;DHT22;17394;50.890;4.724;2023-02-28T08:01:48;-1.10;99.90
30628;DHT22;17394;50.890;4.724;2023-02-28T08:04:18;-0.90;99.90
30628;DHT22;17394;50.890;4.724;2023-02-28T08:06:44;-0.60;99.90
30628;DHT22;17394;50.890;4.724;2023-02-28T08:09:10;-0.40;99.90
30628;DHT22;17394;50.890;4.724;2023-02-28T08:11:36;-0.20;99.90
30628;DHT22;17394;50.890;4.724;2023-02-28T08:14:02;0.00;99.90
30628;DHT22;17394;50.890;4.724;2023-02-28T08:16:27;0.30;99.90
30628;DHT22;17394;50.890;4.724;2023-02-28T08:18:53;0.50;99.90
30628;DHT22;17394;50.890;4.724;2023-02-28T08:21:19;0.70;99.90
30628;DHT22;17394;50.890;4.724;2023-02-28T08:23:48;0.90;99.90
30628;DHT22;17394;50.890;4.724;2023-02-28T08:26:15;1.20;99.90
30628;DHT22;17394;50.890;4.724;2023-02-28T08:28:40;1.30;99.90
30628;DHT22;17394;50.890;4.724;2023-02-28T08:31:07;1.50;99.90
30628;DHT22;17394;50.890;4.724;2023-02-28T08:33:32;1.70;99.90
30628;DHT22;17394;50.890;4.724;2023-02-28T08:35:58;1.90;99.90
30628;DHT22;17394;50.890;4.724;2023-02-28T08:38:24;2.00;99.90
30628;DHT22;17394;50.890;4.724;2023-02-28T08:40:50;2.20;99.90
30628;DHT22;17394;50.890;4.724;2023-02-28T08:43:15;2.40;99.90
30628;DHT22;17394;50.890;4.724;2023-02-28T08:45:41;2.50;99.90
30628;DHT22;17394;50.890;4.724;2023-02-28T08:48:06;2.50;99.90
30628;DHT22;17394;50.890;4.724;2023-02-28T08:50:32;2.70;99.90
30628;DHT22;17394;50.890;4.724;2023-02-28T08:52:58;2.80;99.90
30628;DHT22;17394;50.890;4.724;2023-02-28T08:55:23;2.80;99.90
30628;DHT22;17394;50.890;4.724;2023-02-28T08:57:49;2.90;99.90
30628;DHT22;17394;50.890;4.724;2023-02-28T09:00:15;3.00;99.90
30628;DHT22;17394;50.890;4.724;2023-02-28T09:02:40;3.00;99.90
30628;DHT22;17394;50.890;4.724;2023-02-28T09:05:08;3.10;99.90
30628;DHT22;17394;50.890;4.724;2023-02-28T09:07:36;3.40;99.90
30628;DHT22;17394;50.890;4.724;2023-02-28T09:10:02;3.60;99.90
30628;DHT22;17394;50.890;4.724;2023-02-28T09:12:28;3.70;99.90
30628;DHT22;17394;50.890;4.724;2023-02-28T09:14:57;3.90;99.90
30628;DHT22;17394;50.890;4.724;2023-02-28T09:17:22;3.90;99.90
30628;DHT22;17394;50.890;4.724;2023-02-28T09:19:48;4.00;99.90
30628;DHT22;17394;50.890;4.724;2023-02-28T09:22:14;3.90;99.90
30628;DHT22;17394;50.890;4.724;2023-02-28T09:24:40;3.90;99.90
30628;DHT22;17394;50.890;4.724;2023-02-28T09:27:05;4.00;99.90
30628;DHT22;17394;50.890;4.724;2023-02-28T09:29:32;4.20;99.90
30628;DHT22;17394;50.890;4.724;2023-02-28T09:31:58;4.40;99.90
30628;DHT22;17394;50.890;4.724;2023-02-28T09:34:24;4.50;99.90
30628;DHT22;17394;50.890;4.724;2023-02-28T09:36:50;4.60;99.90
30628;DHT22;17394;50.890;4.724;2023-02-28T09:39:20;4.70;99.90
30628;DHT22;17394;50.890;4.724;2023-02-28T09:41:47;4.90;99.90
30628;DHT22;17394;50.890;4.724;2023-02-28T09:44:17;4.90;99.90
30628;DHT22;17394;50.890;4.724;2023-02-28T09:46:49;5.00;99.90
30628;DHT22;17394;50.890;4.724;2023-02-28T09:49:19;5.10;99.90
30628;DHT22;17394;50.890;4.724;2023-02-28T09:51:47;5.20;99.90
30628;DHT22;17394;50.890;4.724;2023-02-28T09:54:17;5.30;99.90
30628;DHT22;17394;50.890;4.724;2023-02-28T09:56:45;5.40;99.90
30628;DHT22;17394;50.890;4.724;2023-02-28T10:01:54;5.60;99.90
30628;DHT22;17394;50.890;4.724;2023-02-28T10:06:51;5.70;99.90
30628;DHT22;17394;50.890;4.724;2023-02-28T10:09:25;5.90;99.90
30628;DHT22;17394;50.890;4.724;2023-02-28T10:11:52;5.90;99.90
30628;DHT22;17394;50.890;4.724;2023-02-28T10:14:19;6.00;99.90
30628;DHT22;17394;50.890;4.724;2023-02-28T10:16:48;5.90;99.90
30628;DHT22;17394;50.890;4.724;2023-02-28T10:24:20;5.50;99.90
30628;DHT22;17394;50.890;4.724;2023-02-28T10:26:47;5.50;99.90
30628;DHT22;17394;50.890;4.724;2023-02-28T10:29:12;5.60;99.90
30628;DHT22;17394;50.890;4.724;2023-02-28T10:31:39;5.80;99.90
30628;DHT22;17394;50.890;4.724;2023-02-28T10:34:04;5.90;99.90
30628;DHT22;17394;50.890;4.724;2023-02-28T10:36:31;5.80;99.90
30628;DHT22;17394;50.890;4.724;2023-02-28T10:38:57;5.80;99.90
30628;DHT22;17394;50.890;4.724;2023-02-28T10:43:56;6.00;99.90
30628;DHT22;17394;50.890;4.724;2023-02-28T10:46:37;6.00;99.90
30628;DHT22;17394;50.890;4.724;2023-02-28T10:49:05;6.10;99.90
30628;DHT22;17394;50.890;4.724;2023-02-28T10:51:36;6.20;99.90
30628;DHT22;17394;50.890;4.724;2023-02-28T10:54:02;6.20;99.90
30628;DHT22;17394;50.890;4.724;2023-02-28T10:56:28;6.30;99.90
30628;DHT22;17394;50.890;4.724;2023-02-28T10:58:57;6.20;99.90
30628;DHT22;17394;50.890;4.724;2023-02-28T11:01:25;6.30;99.90
30628;DHT22;17394;50.890;4.724;2023-02-28T11:03:59;6.30;99.90
30628;DHT22;17394;50.890;4.724;2023-02-28T11:06:26;6.20;99.90
30628;DHT22;17394;50.890;4.724;2023-02-28T11:08:53;6.10;99.90
30628;DHT22;17394;50.890;4.724;2023-02-28T11:11:20;6.00;99.90
30628;DHT22;17394;50.890;4.724;2023-02-28T11:13:47;5.80;99.90
30628;DHT22;17394;50.890;4.724;2023-02-28T11:16:13;5.80;99.90
30628;DHT22;17394;50.890;4.724;2023-02-28T11:18:50;5.70;99.90
30628;DHT22;17394;50.890;4.724;2023-02-28T11:21:33;5.60;99.90
30628;DHT22;17394;50.890;4.724;2023-02-28T11:29:22;6.00;99.90
30628;DHT22;17394;50.890;4.724;2023-02-28T11:34:29;6.10;99.90
30628;DHT22;17394;50.890;4.724;2023-02-28T11:36:56;6.00;99.90
30628;DHT22;17394;50.890;4.724;2023-02-28T11:39:22;5.90;99.90
30628;DHT22;17394;50.890;4.724;2023-02-28T11:44:23;6.00;99.90
30628;DHT22;17394;50.890;4.724;2023-02-28T11:47:04;6.00;99.90
30628;DHT22;17394;50.890;4.724;2023-02-28T11:49:47;6.10;99.90
30628;DHT22;17394;50.890;4.724;2023-02-28T12:03:14;6.20;99.90
30628;DHT22;17394;50.890;4.724;2023-02-28T12:05:17;6.20;99.90
30628;DHT22;17394;50.890;4.724;2023-02-28T12:07:58;6.10;99.40
30628;DHT22;17394;50.890;4.724;2023-02-28T12:10:28;5.90;99.10
30628;DHT22;17394;50.890;4.724;2023-02-28T12:13:10;5.80;99.90
30628;DHT22;17394;50.890;4.724;2023-02-28T12:20:43;5.70;99.90
30628;DHT22;17394;50.890;4.724;2023-02-28T12:23:40;5.70;99.90
30628;DHT22;17394;50.890;4.724;2023-02-28T12:28:40;5.50;99.90
30628;DHT22;17394;50.890;4.724;2023-02-28T12:33:40;5.40;99.90
30628;DHT22;17394;50.890;4.724;2023-02-28T12:36:11;5.50;99.90
30628;DHT22;17394;50.890;4.724;2023-02-28T12:43:48;5.60;99.90
30628;DHT22;17394;50.890;4.724;2023-02-28T12:46:37;5.70;98.70
30628;DHT22;17394;50.890;4.724;2023-02-28T12:49:06;5.70;99.10
30628;DHT22;17394;50.890;4.724;2023-02-28T12:51:33;5.70;99.60
30628;DHT22;17394;50.890;4.724;2023-02-28T12:59:27;5.60;97.20
30628;DHT22;17394;50.890;4.724;2023-02-28T13:02:18;5.40;97.40
30628;DHT22;17394;50.890;4.724;2023-02-28T13:10:09;5.60;99.20
30628;DHT22;17394;50.890;4.724;2023-02-28T13:12:35;5.70;98.20
30628;DHT22;17394;50.890;4.724;2023-02-28T13:17:30;5.70;99.40
30628;DHT22;17394;50.890;4.724;2023-02-28T13:19:58;5.70;99.10
30628;DHT22;17394;50.890;4.724;2023-02-28T13:24:53;5.80;99.40
30628;DHT22;17394;50.890;4.724;2023-02-28T13:27:40;5.80;99.00
30628;DHT22;17394;50.890;4.724;2023-02-28T13:33:13;5.60;98.90
30628;DHT22;17394;50.890;4.724;2023-02-28T13:35:36;5.60;99.70
30628;DHT22;17394;50.890;4.724;2023-02-28T13:38:12;5.70;99.40
30628;DHT22;17394;50.890;4.724;2023-02-28T13:40:39;5.70;99.00
30628;DHT22;17394;50.890;4.724;2023-02-28T13:43:07;5.60;98.60
30628;DHT22;17394;50.890;4.724;2023-02-28T13:45:33;5.60;97.40
30628;DHT22;17394;50.890;4.724;2023-02-28T13:48:04;5.50;97.50
30628;DHT22;17394;50.890;4.724;2023-02-28T13:50:39;5.40;98.10
30628;DHT22;17394;50.890;4.724;2023-02-28T13:55:56;5.40;98.90
30628;DHT22;17394;50.890;4.724;2023-02-28T14:06:28;5.30;98.30
30628;DHT22;17394;50.890;4.724;2023-02-28T14:11:27;5.30;99.20
30628;DHT22;17394;50.890;4.724;2023-02-28T14:13:53;5.40;99.20
30628;DHT22;17394;50.890;4.724;2023-02-28T14:16:23;5.30;99.00
30628;DHT22;17394;50.890;4.724;2023-02-28T14:34:57;5.00;99.80
30628;DHT22;17394;50.890;4.724;2023-02-28T14:37:29;5.10;98.90
30628;DHT22;17394;50.890;4.724;2023-02-28T14:39:56;5.00;99.10
30628;DHT22;17394;50.890;4.724;2023-02-28T14:42:46;4.90;99.20
30628;DHT22;17394;50.890;4.724;2023-02-28T14:45:18;4.90;99.30
30628;DHT22;17394;50.890;4.724;2023-02-28T14:47:44;4.90;99.60
30628;DHT22;17394;50.890;4.724;2023-02-28T14:50:18;4.80;99.40
30628;DHT22;17394;50.890;4.724;2023-02-28T14:52:44;4.80;99.30
30628;DHT22;17394;50.890;4.724;2023-02-28T14:55:12;4.70;99.40
30628;DHT22;17394;50.890;4.724;2023-02-28T14:57:40;4.70;99.50
30628;DHT22;17394;50.890;4.724;2023-02-28T15:02:51;4.70;99.90
30628;DHT22;17394;50.890;4.724;2023-02-28T15:05:23;4.80;99.80
30628;DHT22;17394;50.890;4.724;2023-02-28T15:07:59;4.80;99.80
30628;DHT22;17394;50.890;4.724;2023-02-28T15:10:26;4.70;99.90
30628;DHT22;17394;50.890;4.724;2023-02-28T15:12:56;4.70;99.90
30628;DHT22;17394;50.890;4.724;2023-02-28T15:15:24;4.70;99.70
30628;DHT22;17394;50.890;4.724;2023-02-28T15:17:52;4.60;99.90
30628;DHT22;17394;50.890;4.724;2023-02-28T15:20:19;4.60;99.90
30628;DHT22;17394;50.890;4.724;2023-02-28T15:22:45;4.60;99.80
30628;DHT22;17394;50.890;4.724;2023-02-28T15:25:13;4.60;99.40
30628;DHT22;17394;50.890;4.724;2023-02-28T15:27:42;4.60;99.40
30628;DHT22;17394;50.890;4.724;2023-02-28T15:32:45;4.50;99.50
30628;DHT22;17394;50.890;4.724;2023-02-28T15:35:28;4.60;99.40
30628;DHT22;17394;50.890;4.724;2023-02-28T15:37:55;4.60;99.70
30628;DHT22;17394;50.890;4.724;2023-02-28T15:43:03;4.40;99.70
30628;DHT22;17394;50.890;4.724;2023-02-28T15:48:02;4.30;99.90
30628;DHT22;17394;50.890;4.724;2023-02-28T15:50:28;4.20;99.90
30628;DHT22;17394;50.890;4.724;2023-02-28T15:52:54;4.20;99.90
30628;DHT22;17394;50.890;4.724;2023-02-28T15:55:21;4.30;99.90
30628;DHT22;17394;50.890;4.724;2023-02-28T15:57:48;4.30;99.90
30628;DHT22;17394;50.890;4.724;2023-02-28T16:00:16;4.20;99.90
30628;DHT22;17394;50.890;4.724;2023-02-28T16:02:44;4.20;99.90
30628;DHT22;17394;50.890;4.724;2023-02-28T16:07:40;4.10;99.90
30628;DHT22;17394;50.890;4.724;2023-02-28T16:10:07;4.00;99.90
30628;DHT22;17394;50.890;4.724;2023-02-28T16:12:35;4.00;99.90
30628;DHT22;17394;50.890;4.724;2023-02-28T16:15:03;3.90;99.90
30628;DHT22;17394;50.890;4.724;2023-02-28T16:17:33;3.80;99.90
30628;DHT22;17394;50.890;4.724;2023-02-28T16:19:59;3.70;99.90
30628;DHT22;17394;50.890;4.724;2023-02-28T16:22:25;3.70;99.90
30628;DHT22;17394;50.890;4.724;2023-02-28T16:24:51;3.70;99.90
30628;DHT22;17394;50.890;4.724;2023-02-28T16:27:21;3.60;99.90
30628;DHT22;17394;50.890;4.724;2023-02-28T16:29:47;3.60;99.90
30628;DHT22;17394;50.890;4.724;2023-02-28T16:32:14;3.60;99.90
30628;DHT22;17394;50.890;4.724;2023-02-28T16:34:41;3.60;99.90
30628;DHT22;17394;50.890;4.724;2023-02-28T16:37:13;3.60;99.90
30628;DHT22;17394;50.890;4.724;2023-02-28T16:39:40;3.60;99.90
30628;DHT22;17394;50.890;4.724;2023-02-28T16:42:05;3.60;99.90
30628;DHT22;17394;50.890;4.724;2023-02-28T16:44:33;3.60;99.90
30628;DHT22;17394;50.890;4.724;2023-02-28T16:46:59;3.50;99.90
30628;DHT22;17394;50.890;4.724;2023-02-28T16:49:25;3.40;99.90
30628;DHT22;17394;50.890;4.724;2023-02-28T16:51:51;3.30;99.90
30628;DHT22;17394;50.890;4.724;2023-02-28T16:54:16;3.30;99.90
30628;DHT22;17394;50.890;4.724;2023-02-28T16:56:43;3.20;99.90
30628;DHT22;17394;50.890;4.724;2023-02-28T16:59:09;3.20;99.90
30628;DHT22;17394;50.890;4.724;2023-02-28T17:01:35;3.10;99.90
30628;DHT22;17394;50.890;4.724;2023-02-28T17:04:01;3.00;99.90
30628;DHT22;17394;50.890;4.724;2023-02-28T17:06:28;2.90;99.90
30628;DHT22;17394;50.890;4.724;2023-02-28T17:08:54;2.80;99.90
30628;DHT22;17394;50.890;4.724;2023-02-28T17:11:20;2.70;99.90
30628;DHT22;17394;50.890;4.724;2023-02-28T17:13:46;2.50;99.90
30628;DHT22;17394;50.890;4.724;2023-02-28T17:16:15;2.50;99.90
30628;DHT22;17394;50.890;4.724;2023-02-28T17:18:42;2.30;99.90
30628;DHT22;17394;50.890;4.724;2023-02-28T17:21:12;2.20;99.90
30628;DHT22;17394;50.890;4.724;2023-02-28T17:23:38;2.10;99.90
30628;DHT22;17394;50.890;4.724;2023-02-28T17:26:04;2.00;99.90
30628;DHT22;17394;50.890;4.724;2023-02-28T17:28:32;1.90;99.90
30628;DHT22;17394;50.890;4.724;2023-02-28T17:30:58;1.80;99.90
30628;DHT22;17394;50.890;4.724;2023-02-28T17:33:23;1.60;99.90
30628;DHT22;17394;50.890;4.724;2023-02-28T17:35:49;1.50;99.90
30628;DHT22;17394;50.890;4.724;2023-02-28T17:38:16;1.40;99.90
30628;DHT22;17394;50.890;4.724;2023-02-28T17:40:41;1.20;99.90
30628;DHT22;17394;50.890;4.724;2023-02-28T17:43:07;1.10;99.90
30628;DHT22;17394;50.890;4.724;2023-02-28T17:45:33;1.00;99.90
30628;DHT22;17394;50.890;4.724;2023-02-28T17:48:00;0.90;99.90
30628;DHT22;17394;50.890;4.724;2023-02-28T17:50:26;0.80;99.90
30628;DHT22;17394;50.890;4.724;2023-02-28T17:52:52;0.70;99.90
30628;DHT22;17394;50.890;4.724;2023-02-28T17:55:18;0.60;99.90
30628;DHT22;17394;50.890;4.724;2023-02-28T17:57:46;0.60;99.90
30628;DHT22;17394;50.890;4.724;2023-02-28T18:00:12;0.50;99.90
30628;DHT22;17394;50.890;4.724;2023-02-28T18:02:38;0.50;99.90
30628;DHT22;17394;50.890;4.724;2023-02-28T18:05:04;0.40;99.90
30628;DHT22;17394;50.890;4.724;2023-02-28T18:07:30;0.40;99.90
30628;DHT22;17394;50.890;4.724;2023-02-28T18:09:56;0.40;99.90